Holicong, Pennsylvania
Current Conditions -  °F | °C
As of 12:54 AM on Tuesday 21 Oct 2014 (Local Time) from KDYL Reporting Station
Overcast Overcast  
Wind Chill: 51°   Ceiling: 6000
Heat Index: 51°   Visibility: 10mi
Dew Point: 44°   Wind: 3mph
Humidity: 77%   Direction: 180°S
Pressure: 29.94"   Gusts: NA
Location:  40.34°N, 75.05°W
Report Text: KDYL 210454Z AUTO 18003KT 10SM BKN060 OVC075 11/07 A2994 RMK AO2 SLP140 T01060067 401501006
Loading
Personal Weather Stations






























Interactive Weather Map
Tropical Storm Tracking
New forecast layout! Learn more

10-Day Weather Forecast

Advertisements
Track Severe Weather on mobile